createdAt,value
2022-11-03T00:01:47.966Z,46.08
2022-11-03T00:04:19.160Z,51.88
2022-11-03T00:06:49.555Z,47.17
2022-11-03T00:09:20.755Z,51.33
2022-11-03T00:11:50.940Z,46.47
2022-11-03T00:14:18.488Z,50.63
2022-11-03T00:16:46.136Z,46.88
2022-11-03T00:19:17.548Z,45.88
2022-11-03T00:21:45.757Z,46.72
2022-11-03T00:24:13.111Z,52.53
2022-11-03T00:26:40.262Z,44.53
2022-11-03T00:29:10.824Z,45.10
2022-11-03T00:31:39.607Z,46.10
2022-11-03T00:34:07.992Z,50.97
2022-11-03T00:36:37.692Z,49.08
2022-11-03T00:39:05.501Z,46.10
2022-11-03T00:41:38.995Z,48.42
2022-11-03T00:44:06.423Z,51.60
2022-11-03T00:46:36.623Z,49.20
2022-11-03T00:49:05.167Z,44.00
2022-11-03T00:51:34.589Z,43.67
2022-11-03T00:54:07.693Z,45.83
2022-11-03T00:56:43.223Z,46.17
2022-11-03T00:59:10.633Z,42.10
2022-11-03T01:01:46.794Z,40.10
2022-11-03T01:04:36.803Z,47.40
2022-11-03T01:07:07.726Z,49.85
2022-11-03T01:09:40.218Z,45.17
2022-11-03T01:12:09.181Z,44.17
2022-11-03T01:14:50.966Z,44.90
2022-11-03T01:17:25.859Z,42.90
2022-11-03T01:20:37.208Z,49.08
2022-11-03T01:23:04.583Z,42.97
2022-11-03T01:25:32.682Z,43.15
2022-11-03T01:27:59.734Z,46.15
2022-11-03T01:30:27.235Z,39.78
2022-11-03T01:33:02.064Z,48.00
2022-11-03T01:35:29.255Z,49.65
2022-11-03T01:37:59.292Z,46.58
2022-11-03T01:40:26.209Z,45.42
2022-11-03T01:42:53.255Z,39.33
2022-11-03T01:45:21.340Z,41.40
2022-11-03T01:48:10.917Z,43.22
2022-11-03T01:50:38.991Z,41.05
2022-11-03T01:53:07.334Z,42.45
2022-11-03T01:55:40.062Z,42.40
2022-11-03T01:58:30.219Z,37.03
2022-11-03T02:00:59.463Z,39.55
2022-11-03T02:03:29.525Z,43.03
2022-11-03T02:05:56.887Z,35.97
2022-11-03T02:08:35.928Z,40.40
2022-11-03T02:11:25.535Z,43.50
2022-11-03T02:13:53.019Z,39.40
2022-11-03T02:16:23.715Z,39.25
2022-11-03T02:18:53.162Z,40.97
2022-11-03T02:21:26.250Z,38.95
2022-11-03T02:24:16.625Z,35.40
2022-11-03T02:26:47.750Z,37.10
2022-11-03T02:29:15.046Z,44.60
2022-11-03T02:31:48.059Z,43.70
2022-11-03T02:34:32.170Z,52.72
2022-11-03T02:37:05.463Z,41.22
2022-11-03T02:39:37.506Z,56.95
2022-11-03T02:42:05.363Z,50.70
2022-11-03T02:44:34.216Z,46.33
2022-11-03T02:47:06.315Z,53.13
2022-11-03T02:49:46.267Z,52.80
2022-11-03T02:52:38.185Z,48.97
2022-11-03T02:55:42.644Z,47.63
2022-11-03T02:58:31.536Z,46.67
2022-11-03T03:01:49.247Z,39.40
2022-11-03T03:04:36.552Z,43.17
2022-11-03T03:07:32.932Z,40.35
2022-11-03T03:10:12.493Z,45.85
2022-11-03T03:12:43.505Z,52.45
2022-11-03T03:15:10.618Z,47.33
2022-11-03T03:18:04.503Z,41.58
2022-11-03T03:20:50.936Z,53.22
2022-11-03T03:23:32.121Z,49.95
2022-11-03T03:26:05.190Z,36.10
2022-11-03T03:28:43.889Z,51.38
2022-11-03T03:31:14.622Z,45.90
2022-11-03T03:33:47.525Z,47.92
2022-11-03T03:36:19.578Z,48.95
2022-11-03T03:38:55.503Z,52.25
2022-11-03T03:41:24.528Z,50.33
2022-11-03T03:44:01.739Z,53.53
2022-11-03T03:46:35.007Z,50.00
2022-11-03T03:49:02.413Z,46.65
2022-11-03T03:51:31.475Z,47.78
2022-11-03T03:53:58.446Z,54.28
2022-11-03T03:56:33.113Z,57.13
2022-11-03T03:58:59.954Z,46.30
2022-11-03T04:01:27.108Z,52.55
2022-11-03T04:03:54.273Z,45.53
2022-11-03T04:06:21.197Z,42.03
2022-11-03T04:08:48.725Z,48.83
2022-11-03T04:11:34.120Z,45.55
2022-11-03T04:14:19.340Z,46.22
2022-11-03T04:17:04.628Z,45.67
2022-11-03T04:19:50.019Z,45.67
2022-11-03T04:22:17.788Z,43.25
2022-11-03T04:24:51.587Z,42.80
2022-11-03T04:27:24.494Z,48.38
2022-11-03T04:29:52.128Z,52.13
2022-11-03T04:32:19.272Z,45.42
2022-11-03T04:34:48.826Z,49.25
2022-11-03T04:37:16.145Z,47.53
2022-11-03T04:42:21.663Z,49.33
2022-11-03T04:44:51.875Z,46.45
2022-11-03T04:47:18.905Z,40.67
2022-11-03T04:49:47.978Z,42.92
2022-11-03T04:52:21.718Z,42.33
2022-11-03T04:54:52.970Z,49.00
2022-11-03T04:57:19.975Z,43.30
2022-11-03T04:59:49.427Z,44.45
2022-11-03T05:02:22.695Z,41.20
2022-11-03T05:04:49.682Z,44.13
2022-11-03T05:07:32.140Z,45.58
2022-11-03T05:09:59.655Z,49.58
2022-11-03T05:12:26.677Z,46.13
2022-11-03T05:14:58.114Z,47.75
2022-11-03T05:17:28.833Z,52.78
2022-11-03T05:20:00.201Z,54.80
2022-11-03T05:22:31.744Z,54.13
2022-11-03T05:25:06.962Z,54.47
2022-11-03T05:27:33.957Z,51.58
2022-11-03T05:30:01.465Z,51.15
2022-11-03T05:32:34.284Z,52.10
2022-11-03T05:35:01.759Z,45.42
2022-11-03T05:37:33.416Z,52.33
2022-11-03T05:40:14.854Z,47.67
2022-11-03T05:42:45.345Z,47.60
2022-11-03T05:45:26.679Z,54.78
2022-11-03T05:47:55.575Z,57.13
2022-11-03T05:50:33.364Z,58.78
2022-11-03T05:53:30.592Z,54.53
2022-11-03T05:56:01.091Z,52.63
2022-11-03T05:58:37.211Z,56.72
2022-11-03T06:01:24.527Z,52.20
2022-11-03T06:03:53.940Z,48.22
2022-11-03T06:06:20.995Z,53.22
2022-11-03T06:08:48.633Z,53.33
2022-11-03T06:11:23.201Z,49.53
2022-11-03T06:13:50.122Z,46.92
2022-11-03T06:16:37.586Z,51.30
2022-11-03T06:19:33.668Z,52.90
2022-11-03T06:22:15.666Z,48.85
2022-11-03T06:27:47.671Z,45.20
2022-11-03T06:30:35.183Z,45.70
2022-11-03T06:33:27.035Z,50.85
2022-11-03T06:35:59.274Z,52.72
2022-11-03T06:38:33.153Z,49.95
2022-11-03T06:41:37.853Z,45.08
2022-11-03T06:44:43.998Z,50.45
2022-11-03T06:47:39.643Z,49.15
2022-11-03T06:50:26.146Z,56.35
2022-11-03T06:53:09.473Z,49.33
2022-11-03T06:55:43.017Z,49.95
2022-11-03T06:58:40.822Z,58.40
2022-11-03T07:01:57.911Z,53.60
2022-11-03T07:04:30.481Z,54.40
2022-11-03T07:07:03.659Z,51.30
2022-11-03T07:09:30.716Z,51.72
2022-11-03T07:12:41.228Z,51.78
2022-11-03T07:15:23.467Z,56.80
2022-11-03T07:17:52.702Z,54.63
2022-11-03T07:23:27.165Z,63.28
2022-11-03T07:26:27.599Z,63.85
2022-11-03T07:28:56.929Z,60.90
2022-11-03T07:31:36.922Z,57.33
2022-11-03T07:34:15.713Z,49.50
2022-11-03T07:36:44.848Z,45.22
2022-11-03T07:39:18.272Z,46.65
2022-11-03T07:41:45.784Z,47.25
2022-11-03T07:44:25.610Z,49.60
2022-11-03T07:46:57.882Z,49.88
2022-11-03T07:49:45.393Z,56.78
2022-11-03T07:52:20.652Z,41.40
2022-11-03T07:54:49.357Z,37.67
2022-11-03T07:57:23.956Z,42.20
2022-11-03T07:59:54.257Z,42.03
2022-11-03T08:02:37.654Z,47.53
2022-11-03T08:05:08.931Z,43.35
2022-11-03T08:07:37.820Z,50.53
2022-11-03T08:10:06.975Z,62.88
2022-11-03T08:12:34.335Z,81.00
2022-11-03T08:15:09.331Z,70.68
2022-11-03T08:17:36.258Z,77.38
2022-11-03T08:20:10.356Z,74.82
2022-11-03T08:23:19.712Z,74.68
2022-11-03T08:26:06.437Z,73.82
2022-11-03T08:28:44.972Z,80.93
2022-11-03T08:31:20.419Z,78.25
2022-11-03T08:34:12.603Z,76.72
2022-11-03T08:36:49.489Z,79.25
2022-11-03T08:39:37.547Z,74.40
2022-11-03T08:42:07.181Z,80.50
2022-11-03T08:44:44.808Z,79.57
2022-11-03T08:47:17.303Z,83.68
2022-11-03T08:49:59.146Z,72.60
2022-11-03T08:52:43.410Z,62.17
2022-11-03T08:55:44.854Z,55.40
2022-11-03T08:58:23.165Z,48.30
2022-11-03T09:01:06.353Z,50.95
2022-11-03T09:03:37.713Z,42.25
2022-11-03T09:06:07.747Z,47.72
2022-11-03T09:11:52.678Z,41.53
2022-11-03T09:14:54.519Z,39.10
2022-11-03T09:17:39.458Z,46.78
2022-11-03T09:20:17.841Z,42.47
2022-11-03T09:22:58.562Z,53.67
2022-11-03T09:25:30.124Z,44.95
2022-11-03T09:28:08.584Z,44.67
2022-11-03T09:30:36.424Z,48.45
2022-11-03T09:33:16.769Z,44.20
2022-11-03T09:36:13.021Z,47.88
2022-11-03T09:38:45.681Z,46.20
2022-11-03T09:41:44.252Z,50.17
2022-11-03T09:44:47.550Z,48.92
2022-11-03T09:47:42.520Z,44.83
2022-11-03T09:50:23.946Z,42.50
2022-11-03T09:52:56.810Z,44.03
2022-11-03T09:59:01.842Z,53.22
2022-11-03T10:05:11.271Z,52.85
2022-11-03T10:07:48.102Z,53.33
2022-11-03T10:10:25.094Z,56.53
2022-11-03T10:12:58.753Z,53.50
2022-11-03T10:23:02.585Z,57.75
2022-11-03T10:26:35.940Z,59.75
2022-11-03T10:29:33.421Z,67.00
2022-11-03T10:32:39.317Z,62.20
2022-11-03T10:35:52.414Z,57.80
2022-11-03T10:38:56.254Z,64.30
2022-11-03T10:41:44.339Z,68.47
2022-11-03T10:44:49.437Z,66.13
2022-11-03T10:50:45.899Z,57.42
2022-11-03T10:53:30.580Z,59.72
2022-11-03T11:00:19.022Z,59.83
2022-11-03T11:06:02.296Z,61.50
2022-11-03T11:12:31.331Z,62.63
2022-11-03T11:22:05.787Z,60.55
2022-11-03T11:28:32.531Z,61.63
2022-11-03T11:31:51.098Z,58.70
2022-11-03T11:41:00.144Z,58.97
2022-11-03T11:43:53.525Z,64.32
2022-11-03T11:47:02.721Z,72.03
2022-11-03T11:51:06.922Z,67.28
2022-11-03T11:53:50.960Z,64.63
2022-11-03T11:56:28.734Z,62.88
2022-11-03T11:59:15.677Z,65.47
2022-11-03T12:01:49.019Z,59.53
2022-11-03T12:07:41.979Z,66.40
2022-11-03T12:10:20.707Z,60.53
2022-11-03T12:12:49.054Z,65.43
2022-11-03T12:23:17.049Z,74.07
2022-11-03T12:25:48.364Z,71.95
2022-11-03T12:28:44.020Z,75.63
2022-11-03T12:44:00.380Z,80.78
2022-11-03T12:49:49.504Z,77.37
2022-11-03T12:57:00.932Z,81.15
2022-11-03T13:02:32.835Z,72.28
2022-11-03T13:05:38.275Z,78.47
2022-11-03T13:08:14.146Z,78.38
2022-11-03T13:10:45.838Z,79.40
2022-11-03T13:16:42.110Z,75.28
2022-11-03T13:19:22.833Z,79.93
2022-11-03T13:22:01.266Z,73.85
2022-11-03T13:24:48.725Z,69.78
2022-11-03T13:31:09.043Z,71.05
2022-11-03T13:34:37.746Z,75.93
2022-11-03T13:37:35.983Z,76.72
2022-11-03T13:43:47.939Z,74.90
2022-11-03T13:50:58.074Z,74.60
2022-11-03T14:00:05.070Z,81.85
2022-11-03T14:06:21.194Z,69.15
2022-11-03T14:18:37.916Z,70.90
2022-11-03T14:24:57.618Z,73.97
2022-11-03T14:37:19.302Z,67.22
2022-11-03T15:00:18.681Z,66.82
2022-11-03T15:06:22.685Z,69.07
2022-11-03T15:08:56.431Z,73.65
2022-11-03T15:29:15.599Z,84.50
2022-11-03T15:34:43.321Z,85.32
2022-11-03T15:37:22.837Z,82.15
2022-11-03T15:44:06.394Z,76.32
2022-11-03T15:53:33.830Z,85.15
2022-11-03T16:07:09.059Z,86.93
2022-11-03T16:10:26.014Z,81.40
2022-11-03T16:13:29.520Z,83.00
2022-11-03T16:29:16.791Z,82.30
2022-11-03T16:35:11.002Z,90.13
2022-11-03T16:41:24.908Z,80.93
2022-11-03T16:47:06.711Z,81.38
2022-11-03T16:57:05.998Z,74.13
2022-11-03T16:59:52.194Z,87.20
2022-11-03T17:05:21.314Z,88.00
2022-11-03T17:08:02.299Z,86.57
2022-11-03T17:18:41.075Z,84.70
2022-11-03T17:21:19.192Z,88.65
2022-11-03T17:23:48.984Z,91.70
2022-11-03T17:26:24.230Z,97.22
2022-11-03T17:28:58.931Z,86.47
2022-11-03T17:31:41.260Z,90.70
2022-11-03T17:34:20.295Z,88.15
2022-11-03T17:37:11.344Z,93.68
2022-11-03T17:39:42.559Z,89.47
2022-11-03T17:42:21.081Z,89.05
2022-11-03T17:44:54.968Z,90.30
2022-11-03T17:50:18.447Z,87.30
2022-11-03T17:52:49.246Z,93.43
2022-11-03T17:55:37.742Z,87.47
2022-11-03T17:58:06.150Z,92.25
2022-11-03T18:00:35.840Z,83.03
2022-11-03T18:03:22.431Z,82.10
2022-11-03T18:05:52.869Z,83.40
2022-11-03T18:08:27.081Z,88.05
2022-11-03T18:10:56.493Z,84.88
2022-11-03T18:14:23.192Z,93.97
2022-11-03T18:16:53.024Z,91.25
2022-11-03T18:19:22.007Z,84.43
2022-11-03T18:21:53.807Z,94.28
2022-11-03T18:24:24.564Z,92.20
2022-11-03T18:26:56.096Z,90.53
2022-11-03T18:36:47.176Z,99.55
2022-11-03T18:45:25.032Z,92.28
2022-11-03T18:51:19.562Z,91.85
2022-11-03T18:57:24.912Z,98.95
2022-11-03T19:00:40.597Z,97.00
2022-11-03T19:06:35.241Z,106.22
2022-11-03T19:09:05.001Z,103.53
2022-11-03T19:11:35.043Z,103.50
2022-11-03T19:14:02.281Z,103.32
2022-11-03T19:16:31.641Z,102.75
2022-11-03T19:18:59.843Z,108.65
2022-11-03T19:21:28.258Z,105.35
2022-11-03T19:23:58.345Z,106.97
2022-11-03T19:26:34.971Z,106.70
2022-11-03T19:29:36.670Z,103.97
2022-11-03T19:32:06.092Z,98.13
2022-11-03T19:34:35.316Z,96.53
2022-11-03T19:37:04.289Z,99.07
2022-11-03T19:39:39.033Z,97.45
2022-11-03T19:42:29.428Z,103.93
2022-11-03T19:45:05.162Z,94.00
2022-11-03T19:47:57.724Z,94.05
2022-11-03T19:50:38.085Z,94.50
2022-11-03T19:53:07.541Z,102.55
2022-11-03T19:58:29.929Z,96.30
2022-11-03T20:01:19.645Z,108.70
2022-11-03T20:03:49.122Z,115.30
2022-11-03T20:06:19.384Z,110.78
2022-11-03T20:08:49.443Z,115.20
2022-11-03T20:11:16.468Z,115.25
2022-11-03T20:13:45.618Z,121.55
2022-11-03T20:16:20.935Z,116.32
2022-11-03T20:18:48.991Z,121.13
2022-11-03T20:21:18.321Z,109.45
2022-11-03T20:23:47.249Z,107.70
2022-11-03T20:26:18.001Z,107.30
2022-11-03T20:28:51.126Z,102.78
2022-11-03T20:32:13.864Z,106.60
2022-11-03T20:35:38.385Z,104.53
2022-11-03T20:38:49.295Z,100.47
2022-11-03T20:42:01.983Z,102.97
2022-11-03T20:47:48.115Z,103.43
2022-11-03T21:01:33.792Z,113.20
2022-11-03T21:05:10.134Z,88.05
2022-11-03T21:15:26.680Z,83.43
2022-11-03T21:22:52.061Z,83.85
2022-11-03T21:36:37.248Z,75.47
2022-11-03T21:39:04.546Z,70.80
2022-11-03T21:41:49.947Z,66.00
2022-11-03T21:44:17.043Z,67.97
2022-11-03T21:46:47.097Z,63.58
2022-11-03T21:49:32.832Z,66.95
2022-11-03T21:52:00.099Z,65.18
2022-11-03T21:54:34.169Z,63.38
2022-11-03T22:04:11.134Z,62.35
2022-11-03T22:07:10.031Z,61.47
2022-11-03T22:09:39.305Z,60.85
2022-11-03T22:13:01.549Z,58.97
2022-11-03T22:16:24.449Z,59.78
2022-11-03T22:19:59.582Z,55.25
2022-11-03T22:26:37.294Z,51.50
2022-11-03T22:33:22.784Z,51.30
2022-11-03T22:37:00.201Z,47.13
2022-11-03T22:43:21.574Z,47.22
2022-11-03T22:45:54.399Z,47.90
2022-11-03T22:48:23.254Z,45.92
2022-11-03T22:51:28.903Z,47.03
2022-11-03T23:03:53.470Z,35.88
2022-11-03T23:09:41.200Z,40.03
2022-11-03T23:12:08.816Z,33.33
2022-11-03T23:14:56.308Z,35.55
2022-11-03T23:17:47.622Z,37.20
2022-11-03T23:24:53.462Z,33.08
2022-11-03T23:36:05.456Z,35.40
2022-11-03T23:38:39.321Z,30.90
2022-11-03T23:41:33.556Z,32.33
2022-11-03T23:48:46.921Z,25.63
2022-11-03T23:52:10.072Z,26.52
